createdAt,value
2022-09-28T04:21:38.750Z,0.00
2022-09-28T04:35:14.165Z,0.00
2022-09-28T04:40:21.942Z,0.00
2022-09-28T04:46:33.007Z,0.00
2022-09-28T04:51:40.407Z,0.00
2022-09-28T04:59:36.572Z,0.00
2022-09-28T05:04:36.480Z,0.00
2022-09-28T05:09:38.404Z,0.00
2022-09-28T05:14:36.385Z,0.00
2022-09-28T05:22:43.452Z,0.00
2022-09-28T05:27:43.131Z,5.62
2022-09-28T05:32:43.185Z,11.25
2022-09-28T05:37:42.993Z,5.62
2022-09-28T05:42:42.810Z,5.62
2022-09-28T05:47:42.811Z,11.25
2022-09-28T05:52:42.775Z,16.88
2022-09-28T05:57:42.744Z,22.50
2022-09-28T06:02:42.594Z,28.12
2022-09-28T06:07:42.403Z,28.12
2022-09-28T06:12:45.415Z,22.50
2022-09-28T06:17:42.377Z,33.75
2022-09-28T06:22:42.330Z,28.12
2022-09-28T06:27:42.306Z,33.75
2022-09-28T06:32:43.374Z,39.38
2022-09-28T06:37:42.153Z,33.75
2022-09-28T06:42:42.036Z,39.38
2022-09-28T06:47:42.228Z,50.62
2022-09-28T06:53:59.726Z,61.88
2022-09-28T06:58:59.802Z,84.38
2022-09-28T07:03:59.821Z,123.75
2022-09-28T07:09:15.478Z,140.62
2022-09-28T07:14:00.794Z,129.38
2022-09-28T07:18:59.572Z,118.12
2022-09-28T07:26:07.202Z,101.25
2022-09-28T07:31:04.445Z,73.12
2022-09-28T07:36:04.520Z,101.25
2022-09-28T07:41:04.405Z,95.62
2022-09-28T07:46:04.212Z,95.62
2022-09-28T07:51:03.946Z,146.25
2022-09-28T07:56:04.191Z,180.00
2022-09-28T08:01:04.150Z,219.38
2022-09-28T08:06:14.620Z,219.38
2022-09-28T08:11:03.919Z,185.62
2022-09-28T08:16:07.037Z,298.12
2022-09-28T08:21:03.709Z,253.12
2022-09-28T08:26:03.663Z,241.88
2022-09-28T08:31:03.493Z,236.25
2022-09-28T08:36:04.156Z,275.62
2022-09-28T08:41:03.511Z,236.25
2022-09-28T09:00:32.693Z,506.25
2022-09-28T09:05:32.202Z,416.25
2022-09-28T09:15:38.476Z,208.12
2022-09-28T09:20:38.506Z,292.50
2022-09-28T09:25:38.699Z,663.75
